sensor_id;sensor_type;location;lat;lon;timestamp;P1;durP1;ratioP1;P2;durP2;ratioP2
54167;SDS011;68429;50.958;3.592;2023-05-16T00:01:08;18.05;;;2.70;;
54167;SDS011;68429;50.958;3.592;2023-05-16T00:03:34;25.33;;;2.92;;
54167;SDS011;68429;50.958;3.592;2023-05-16T00:06:01;14.30;;;2.00;;
54167;SDS011;68429;50.958;3.592;2023-05-16T00:08:27;7.05;;;1.92;;
54167;SDS011;68429;50.958;3.592;2023-05-16T00:10:53;13.02;;;2.05;;
54167;SDS011;68429;50.958;3.592;2023-05-16T00:13:19;19.05;;;2.10;;
54167;SDS011;68429;50.958;3.592;2023-05-16T00:18:15;16.35;;;2.50;;
54167;SDS011;68429;50.958;3.592;2023-05-16T00:20:41;24.00;;;2.85;;
54167;SDS011;68429;50.958;3.592;2023-05-16T00:23:07;12.10;;;2.28;;
54167;SDS011;68429;50.958;3.592;2023-05-16T00:25:33;10.18;;;1.95;;
54167;SDS011;68429;50.958;3.592;2023-05-16T00:28:00;17.35;;;2.30;;
54167;SDS011;68429;50.958;3.592;2023-05-16T00:30:26;14.70;;;2.85;;
54167;SDS011;68429;50.958;3.592;2023-05-16T00:32:53;12.05;;;2.55;;
54167;SDS011;68429;50.958;3.592;2023-05-16T00:35:19;27.77;;;3.15;;
54167;SDS011;68429;50.958;3.592;2023-05-16T00:37:45;15.95;;;2.50;;
54167;SDS011;68429;50.958;3.592;2023-05-16T00:40:10;26.13;;;3.30;;
54167;SDS011;68429;50.958;3.592;2023-05-16T00:42:37;13.77;;;2.17;;
54167;SDS011;68429;50.958;3.592;2023-05-16T00:45:03;15.60;;;2.70;;
54167;SDS011;68429;50.958;3.592;2023-05-16T00:47:30;16.40;;;2.58;;
54167;SDS011;68429;50.958;3.592;2023-05-16T00:49:56;25.20;;;3.55;;
54167;SDS011;68429;50.958;3.592;2023-05-16T00:52:22;16.40;;;2.47;;
54167;SDS011;68429;50.958;3.592;2023-05-16T00:54:49;19.08;;;3.22;;
54167;SDS011;68429;50.958;3.592;2023-05-16T00:57:15;14.02;;;2.58;;
54167;SDS011;68429;50.958;3.592;2023-05-16T00:59:41;15.52;;;2.63;;
54167;SDS011;68429;50.958;3.592;2023-05-16T01:02:08;12.73;;;2.47;;
54167;SDS011;68429;50.958;3.592;2023-05-16T01:04:34;20.48;;;2.47;;
54167;SDS011;68429;50.958;3.592;2023-05-16T01:07:00;22.33;;;3.05;;
54167;SDS011;68429;50.958;3.592;2023-05-16T01:09:26;14.10;;;2.28;;
54167;SDS011;68429;50.958;3.592;2023-05-16T01:17:22;15.82;;;2.97;;
54167;SDS011;68429;50.958;3.592;2023-05-16T01:20:15;13.05;;;2.28;;
54167;SDS011;68429;50.958;3.592;2023-05-16T01:27:57;15.88;;;2.80;;
54167;SDS011;68429;50.958;3.592;2023-05-16T01:30:23;15.70;;;2.75;;
54167;SDS011;68429;50.958;3.592;2023-05-16T01:32:49;12.77;;;2.70;;
54167;SDS011;68429;50.958;3.592;2023-05-16T01:35:15;13.05;;;2.58;;
54167;SDS011;68429;50.958;3.592;2023-05-16T01:40:37;13.73;;;2.40;;
54167;SDS011;68429;50.958;3.592;2023-05-16T01:43:12;12.48;;;2.35;;
54167;SDS011;68429;50.958;3.592;2023-05-16T01:45:43;10.48;;;2.65;;
54167;SDS011;68429;50.958;3.592;2023-05-16T01:48:21;9.45;;;2.05;;
54167;SDS011;68429;50.958;3.592;2023-05-16T01:50:54;21.60;;;2.70;;
54167;SDS011;68429;50.958;3.592;2023-05-16T01:53:24;17.88;;;2.63;;
54167;SDS011;68429;50.958;3.592;2023-05-16T01:55:52;16.15;;;3.50;;
54167;SDS011;68429;50.958;3.592;2023-05-16T02:00:51;16.83;;;2.30;;
54167;SDS011;68429;50.958;3.592;2023-05-16T02:03:24;7.85;;;1.67;;
54167;SDS011;68429;50.958;3.592;2023-05-16T02:05:49;16.25;;;2.42;;
54167;SDS011;68429;50.958;3.592;2023-05-16T02:08:16;15.85;;;3.00;;
54167;SDS011;68429;50.958;3.592;2023-05-16T02:10:41;12.80;;;2.60;;
54167;SDS011;68429;50.958;3.592;2023-05-16T02:13:07;13.70;;;2.00;;
54167;SDS011;68429;50.958;3.592;2023-05-16T02:15:33;16.52;;;2.55;;
54167;SDS011;68429;50.958;3.592;2023-05-16T02:17:58;10.18;;;2.10;;
54167;SDS011;68429;50.958;3.592;2023-05-16T02:20:24;16.80;;;2.28;;
54167;SDS011;68429;50.958;3.592;2023-05-16T02:22:50;10.85;;;2.28;;
54167;SDS011;68429;50.958;3.592;2023-05-16T02:25:15;18.95;;;2.58;;
54167;SDS011;68429;50.958;3.592;2023-05-16T02:27:41;12.23;;;2.28;;
54167;SDS011;68429;50.958;3.592;2023-05-16T02:30:08;13.13;;;2.50;;
54167;SDS011;68429;50.958;3.592;2023-05-16T02:32:35;14.02;;;2.45;;
54167;SDS011;68429;50.958;3.592;2023-05-16T02:35:02;18.83;;;2.38;;
54167;SDS011;68429;50.958;3.592;2023-05-16T02:37:28;16.95;;;2.20;;
54167;SDS011;68429;50.958;3.592;2023-05-16T02:39:54;15.82;;;2.40;;
54167;SDS011;68429;50.958;3.592;2023-05-16T02:42:19;17.33;;;2.83;;
54167;SDS011;68429;50.958;3.592;2023-05-16T02:44:45;13.18;;;2.70;;
54167;SDS011;68429;50.958;3.592;2023-05-16T02:47:11;13.23;;;2.20;;
54167;SDS011;68429;50.958;3.592;2023-05-16T02:49:36;9.38;;;1.70;;
54167;SDS011;68429;50.958;3.592;2023-05-16T02:52:02;19.88;;;2.80;;
54167;SDS011;68429;50.958;3.592;2023-05-16T02:54:28;13.75;;;2.17;;
54167;SDS011;68429;50.958;3.592;2023-05-16T02:56:53;8.02;;;1.90;;
54167;SDS011;68429;50.958;3.592;2023-05-16T02:59:19;13.32;;;2.15;;
54167;SDS011;68429;50.958;3.592;2023-05-16T03:01:45;10.45;;;2.30;;
54167;SDS011;68429;50.958;3.592;2023-05-16T03:04:10;10.40;;;2.20;;
54167;SDS011;68429;50.958;3.592;2023-05-16T03:06:36;7.10;;;2.03;;
54167;SDS011;68429;50.958;3.592;2023-05-16T03:09:01;20.85;;;2.90;;
54167;SDS011;68429;50.958;3.592;2023-05-16T03:11:27;16.10;;;2.38;;
54167;SDS011;68429;50.958;3.592;2023-05-16T03:13:53;21.67;;;3.42;;
54167;SDS011;68429;50.958;3.592;2023-05-16T03:16:19;11.95;;;1.98;;
54167;SDS011;68429;50.958;3.592;2023-05-16T03:18:45;10.65;;;2.33;;
54167;SDS011;68429;50.958;3.592;2023-05-16T03:21:11;12.18;;;1.85;;
54167;SDS011;68429;50.958;3.592;2023-05-16T03:23:37;9.63;;;2.13;;
54167;SDS011;68429;50.958;3.592;2023-05-16T03:26:02;19.55;;;3.25;;
54167;SDS011;68429;50.958;3.592;2023-05-16T03:28:28;14.30;;;2.67;;
54167;SDS011;68429;50.958;3.592;2023-05-16T03:30:54;10.40;;;2.40;;
54167;SDS011;68429;50.958;3.592;2023-05-16T03:33:19;9.23;;;3.08;;
54167;SDS011;68429;50.958;3.592;2023-05-16T03:35:45;19.17;;;2.70;;
54167;SDS011;68429;50.958;3.592;2023-05-16T03:38:11;11.27;;;2.63;;
54167;SDS011;68429;50.958;3.592;2023-05-16T03:40:37;12.18;;;2.75;;
54167;SDS011;68429;50.958;3.592;2023-05-16T03:43:03;17.27;;;3.47;;
54167;SDS011;68429;50.958;3.592;2023-05-16T03:45:29;17.30;;;2.95;;
54167;SDS011;68429;50.958;3.592;2023-05-16T03:47:55;16.02;;;2.63;;
54167;SDS011;68429;50.958;3.592;2023-05-16T03:50:21;15.18;;;2.95;;
54167;SDS011;68429;50.958;3.592;2023-05-16T03:52:47;11.98;;;2.72;;
54167;SDS011;68429;50.958;3.592;2023-05-16T03:55:13;12.23;;;2.60;;
54167;SDS011;68429;50.958;3.592;2023-05-16T03:57:39;7.93;;;2.47;;
54167;SDS011;68429;50.958;3.592;2023-05-16T04:00:06;11.50;;;2.83;;
54167;SDS011;68429;50.958;3.592;2023-05-16T04:02:33;14.23;;;2.45;;
54167;SDS011;68429;50.958;3.592;2023-05-16T04:04:59;10.70;;;2.40;;
54167;SDS011;68429;50.958;3.592;2023-05-16T04:07:24;16.52;;;2.53;;
54167;SDS011;68429;50.958;3.592;2023-05-16T04:09:50;16.20;;;2.72;;
54167;SDS011;68429;50.958;3.592;2023-05-16T04:12:16;8.98;;;2.00;;
54167;SDS011;68429;50.958;3.592;2023-05-16T04:14:42;12.07;;;2.58;;
54167;SDS011;68429;50.958;3.592;2023-05-16T04:17:07;7.95;;;3.35;;
54167;SDS011;68429;50.958;3.592;2023-05-16T04:19:33;8.55;;;2.10;;
54167;SDS011;68429;50.958;3.592;2023-05-16T04:21:59;8.20;;;2.45;;
54167;SDS011;68429;50.958;3.592;2023-05-16T04:24:24;12.95;;;2.60;;
54167;SDS011;68429;50.958;3.592;2023-05-16T04:26:52;11.52;;;2.13;;
54167;SDS011;68429;50.958;3.592;2023-05-16T04:29:19;10.13;;;3.47;;
54167;SDS011;68429;50.958;3.592;2023-05-16T04:31:45;10.25;;;2.28;;
54167;SDS011;68429;50.958;3.592;2023-05-16T04:34:11;14.80;;;2.78;;
54167;SDS011;68429;50.958;3.592;2023-05-16T04:36:37;8.30;;;2.08;;
54167;SDS011;68429;50.958;3.592;2023-05-16T04:39:02;10.27;;;2.42;;
54167;SDS011;68429;50.958;3.592;2023-05-16T04:41:28;10.35;;;2.28;;
54167;SDS011;68429;50.958;3.592;2023-05-16T04:43:54;12.48;;;2.30;;
54167;SDS011;68429;50.958;3.592;2023-05-16T04:46:20;13.13;;;2.50;;
54167;SDS011;68429;50.958;3.592;2023-05-16T04:48:45;8.98;;;2.72;;
54167;SDS011;68429;50.958;3.592;2023-05-16T04:51:11;13.43;;;2.83;;
54167;SDS011;68429;50.958;3.592;2023-05-16T04:53:37;21.45;;;3.30;;
54167;SDS011;68429;50.958;3.592;2023-05-16T04:56:02;13.68;;;2.70;;
54167;SDS011;68429;50.958;3.592;2023-05-16T04:58:29;14.65;;;2.75;;
54167;SDS011;68429;50.958;3.592;2023-05-16T05:00:55;12.80;;;2.65;;
54167;SDS011;68429;50.958;3.592;2023-05-16T05:03:22;14.90;;;2.20;;
54167;SDS011;68429;50.958;3.592;2023-05-16T05:05:47;13.32;;;2.78;;
54167;SDS011;68429;50.958;3.592;2023-05-16T05:08:13;8.40;;;2.00;;
54167;SDS011;68429;50.958;3.592;2023-05-16T05:10:39;16.40;;;3.08;;
54167;SDS011;68429;50.958;3.592;2023-05-16T05:13:05;11.18;;;2.45;;
54167;SDS011;68429;50.958;3.592;2023-05-16T05:15:30;19.10;;;2.53;;
54167;SDS011;68429;50.958;3.592;2023-05-16T05:17:56;10.70;;;1.92;;
54167;SDS011;68429;50.958;3.592;2023-05-16T05:20:22;13.93;;;2.50;;
54167;SDS011;68429;50.958;3.592;2023-05-16T05:22:47;11.98;;;2.00;;
54167;SDS011;68429;50.958;3.592;2023-05-16T05:25:13;15.30;;;2.15;;
54167;SDS011;68429;50.958;3.592;2023-05-16T05:27:39;8.52;;;1.63;;
54167;SDS011;68429;50.958;3.592;2023-05-16T05:30:05;11.20;;;2.28;;
54167;SDS011;68429;50.958;3.592;2023-05-16T05:32:31;10.20;;;2.47;;
54167;SDS011;68429;50.958;3.592;2023-05-16T05:34:57;9.52;;;2.03;;
54167;SDS011;68429;50.958;3.592;2023-05-16T05:37:23;11.45;;;2.33;;
54167;SDS011;68429;50.958;3.592;2023-05-16T05:39:51;11.48;;;2.28;;
54167;SDS011;68429;50.958;3.592;2023-05-16T05:42:16;11.70;;;1.67;;
54167;SDS011;68429;50.958;3.592;2023-05-16T05:44:42;10.88;;;1.83;;
54167;SDS011;68429;50.958;3.592;2023-05-16T05:47:07;9.13;;;1.65;;
54167;SDS011;68429;50.958;3.592;2023-05-16T05:49:33;15.82;;;2.05;;
54167;SDS011;68429;50.958;3.592;2023-05-16T05:52:00;6.70;;;1.50;;
54167;SDS011;68429;50.958;3.592;2023-05-16T05:54:25;10.20;;;2.38;;
54167;SDS011;68429;50.958;3.592;2023-05-16T05:56:51;18.63;;;2.30;;
54167;SDS011;68429;50.958;3.592;2023-05-16T05:59:17;9.88;;;1.50;;
54167;SDS011;68429;50.958;3.592;2023-05-16T06:01:42;4.68;;;1.70;;
54167;SDS011;68429;50.958;3.592;2023-05-16T06:04:08;8.82;;;1.70;;
54167;SDS011;68429;50.958;3.592;2023-05-16T06:06:35;11.30;;;1.75;;
54167;SDS011;68429;50.958;3.592;2023-05-16T06:09:01;7.78;;;2.33;;
54167;SDS011;68429;50.958;3.592;2023-05-16T06:11:27;9.48;;;1.50;;
54167;SDS011;68429;50.958;3.592;2023-05-16T06:13:53;10.77;;;1.95;;
54167;SDS011;68429;50.958;3.592;2023-05-16T06:16:22;14.80;;;1.90;;
54167;SDS011;68429;50.958;3.592;2023-05-16T06:18:49;9.18;;;2.03;;
54167;SDS011;68429;50.958;3.592;2023-05-16T06:21:15;8.98;;;1.63;;
54167;SDS011;68429;50.958;3.592;2023-05-16T06:23:41;8.75;;;1.70;;
54167;SDS011;68429;50.958;3.592;2023-05-16T06:26:06;7.90;;;1.55;;
54167;SDS011;68429;50.958;3.592;2023-05-16T06:28:32;8.73;;;1.35;;
54167;SDS011;68429;50.958;3.592;2023-05-16T06:30:58;11.02;;;1.88;;
54167;SDS011;68429;50.958;3.592;2023-05-16T06:33:24;14.73;;;2.45;;
54167;SDS011;68429;50.958;3.592;2023-05-16T06:35:49;6.10;;;1.38;;
54167;SDS011;68429;50.958;3.592;2023-05-16T06:38:16;10.18;;;1.73;;
54167;SDS011;68429;50.958;3.592;2023-05-16T06:40:43;6.32;;;1.35;;
54167;SDS011;68429;50.958;3.592;2023-05-16T06:43:09;7.55;;;1.35;;
54167;SDS011;68429;50.958;3.592;2023-05-16T06:45:36;7.38;;;1.35;;
54167;SDS011;68429;50.958;3.592;2023-05-16T06:48:02;13.60;;;2.05;;
54167;SDS011;68429;50.958;3.592;2023-05-16T06:50:28;7.50;;;1.30;;
54167;SDS011;68429;50.958;3.592;2023-05-16T06:52:53;5.15;;;1.20;;
54167;SDS011;68429;50.958;3.592;2023-05-16T06:55:19;8.95;;;1.55;;
54167;SDS011;68429;50.958;3.592;2023-05-16T06:57:45;8.30;;;1.67;;
54167;SDS011;68429;50.958;3.592;2023-05-16T07:00:12;12.43;;;1.65;;
54167;SDS011;68429;50.958;3.592;2023-05-16T07:02:38;12.98;;;2.10;;
54167;SDS011;68429;50.958;3.592;2023-05-16T07:05:04;9.98;;;1.60;;
54167;SDS011;68429;50.958;3.592;2023-05-16T07:07:30;9.20;;;1.67;;
54167;SDS011;68429;50.958;3.592;2023-05-16T07:09:56;10.85;;;1.40;;
54167;SDS011;68429;50.958;3.592;2023-05-16T07:12:21;5.25;;;1.00;;
54167;SDS011;68429;50.958;3.592;2023-05-16T07:14:47;4.38;;;1.60;;
54167;SDS011;68429;50.958;3.592;2023-05-16T07:17:12;15.05;;;3.13;;
54167;SDS011;68429;50.958;3.592;2023-05-16T07:19:39;9.52;;;1.77;;
54167;SDS011;68429;50.958;3.592;2023-05-16T07:22:04;11.95;;;2.00;;
54167;SDS011;68429;50.958;3.592;2023-05-16T07:24:30;9.60;;;1.35;;
54167;SDS011;68429;50.958;3.592;2023-05-16T07:26:55;9.88;;;1.73;;
54167;SDS011;68429;50.958;3.592;2023-05-16T07:29:21;12.93;;;1.60;;
54167;SDS011;68429;50.958;3.592;2023-05-16T07:31:47;5.05;;;1.05;;
54167;SDS011;68429;50.958;3.592;2023-05-16T07:34:12;8.82;;;1.27;;
54167;SDS011;68429;50.958;3.592;2023-05-16T07:36:38;8.95;;;1.58;;
54167;SDS011;68429;50.958;3.592;2023-05-16T07:39:04;7.82;;;1.25;;
54167;SDS011;68429;50.958;3.592;2023-05-16T07:41:29;7.82;;;1.33;;
54167;SDS011;68429;50.958;3.592;2023-05-16T07:43:55;9.10;;;1.10;;
54167;SDS011;68429;50.958;3.592;2023-05-16T07:46:21;10.70;;;1.50;;
54167;SDS011;68429;50.958;3.592;2023-05-16T07:48:47;3.65;;;1.33;;
54167;SDS011;68429;50.958;3.592;2023-05-16T07:51:12;7.18;;;1.27;;
54167;SDS011;68429;50.958;3.592;2023-05-16T07:53:38;7.82;;;1.58;;
54167;SDS011;68429;50.958;3.592;2023-05-16T07:56:03;6.88;;;1.08;;
54167;SDS011;68429;50.958;3.592;2023-05-16T07:58:31;14.43;;;1.90;;
54167;SDS011;68429;50.958;3.592;2023-05-16T08:00:57;6.93;;;1.90;;
54167;SDS011;68429;50.958;3.592;2023-05-16T08:03:23;5.03;;;1.05;;
54167;SDS011;68429;50.958;3.592;2023-05-16T08:05:49;30.05;;;3.50;;
54167;SDS011;68429;50.958;3.592;2023-05-16T08:08:15;13.27;;;1.50;;
54167;SDS011;68429;50.958;3.592;2023-05-16T08:10:41;26.35;;;2.10;;
54167;SDS011;68429;50.958;3.592;2023-05-16T08:13:07;8.85;;;1.23;;
54167;SDS011;68429;50.958;3.592;2023-05-16T08:15:32;4.95;;;0.80;;
54167;SDS011;68429;50.958;3.592;2023-05-16T08:17:58;9.55;;;1.63;;
54167;SDS011;68429;50.958;3.592;2023-05-16T08:20:24;5.75;;;1.00;;
54167;SDS011;68429;50.958;3.592;2023-05-16T08:22:50;5.15;;;1.92;;
54167;SDS011;68429;50.958;3.592;2023-05-16T08:25:16;3.60;;;0.73;;
54167;SDS011;68429;50.958;3.592;2023-05-16T08:27:43;6.15;;;1.10;;
54167;SDS011;68429;50.958;3.592;2023-05-16T08:30:10;7.70;;;1.10;;
54167;SDS011;68429;50.958;3.592;2023-05-16T08:32:36;3.95;;;1.23;;
54167;SDS011;68429;50.958;3.592;2023-05-16T08:35:02;3.80;;;0.80;;
54167;SDS011;68429;50.958;3.592;2023-05-16T08:37:28;7.28;;;1.00;;
54167;SDS011;68429;50.958;3.592;2023-05-16T08:39:53;7.72;;;1.27;;
54167;SDS011;68429;50.958;3.592;2023-05-16T08:42:19;4.45;;;0.75;;
54167;SDS011;68429;50.958;3.592;2023-05-16T08:44:45;3.50;;;0.98;;
54167;SDS011;68429;50.958;3.592;2023-05-16T08:47:13;5.53;;;0.88;;
54167;SDS011;68429;50.958;3.592;2023-05-16T08:49:43;5.20;;;1.10;;
54167;SDS011;68429;50.958;3.592;2023-05-16T08:52:12;6.75;;;1.45;;
54167;SDS011;68429;50.958;3.592;2023-05-16T08:54:42;8.45;;;1.20;;
54167;SDS011;68429;50.958;3.592;2023-05-16T08:57:09;7.10;;;1.23;;
54167;SDS011;68429;50.958;3.592;2023-05-16T08:59:35;7.22;;;1.27;;
54167;SDS011;68429;50.958;3.592;2023-05-16T09:02:00;3.72;;;0.82;;
54167;SDS011;68429;50.958;3.592;2023-05-16T09:04:26;6.50;;;1.25;;
54167;SDS011;68429;50.958;3.592;2023-05-16T09:06:53;4.80;;;1.10;;
54167;SDS011;68429;50.958;3.592;2023-05-16T09:09:19;8.25;;;1.20;;
54167;SDS011;68429;50.958;3.592;2023-05-16T09:11:44;9.25;;;1.42;;
54167;SDS011;68429;50.958;3.592;2023-05-16T09:14:10;7.40;;;1.13;;
54167;SDS011;68429;50.958;3.592;2023-05-16T09:16:36;5.72;;;1.38;;
54167;SDS011;68429;50.958;3.592;2023-05-16T09:19:02;8.82;;;1.60;;
54167;SDS011;68429;50.958;3.592;2023-05-16T09:21:28;6.07;;;1.38;;
54167;SDS011;68429;50.958;3.592;2023-05-16T09:24:05;7.85;;;1.30;;
54167;SDS011;68429;50.958;3.592;2023-05-16T09:26:32;6.10;;;1.52;;
54167;SDS011;68429;50.958;3.592;2023-05-16T09:28:59;8.23;;;1.48;;
54167;SDS011;68429;50.958;3.592;2023-05-16T09:31:26;7.53;;;1.67;;
54167;SDS011;68429;50.958;3.592;2023-05-16T09:34:00;4.80;;;1.00;;
54167;SDS011;68429;50.958;3.592;2023-05-16T09:36:26;6.10;;;0.90;;
54167;SDS011;68429;50.958;3.592;2023-05-16T09:38:52;5.20;;;0.88;;
54167;SDS011;68429;50.958;3.592;2023-05-16T09:41:18;2.97;;;0.70;;
54167;SDS011;68429;50.958;3.592;2023-05-16T09:43:46;5.57;;;1.33;;
54167;SDS011;68429;50.958;3.592;2023-05-16T09:46:14;6.57;;;1.08;;
54167;SDS011;68429;50.958;3.592;2023-05-16T09:48:43;8.55;;;1.35;;
54167;SDS011;68429;50.958;3.592;2023-05-16T09:51:10;3.67;;;1.20;;
54167;SDS011;68429;50.958;3.592;2023-05-16T09:53:36;4.78;;;1.05;;
54167;SDS011;68429;50.958;3.592;2023-05-16T09:56:03;5.43;;;1.20;;
54167;SDS011;68429;50.958;3.592;2023-05-16T09:58:33;5.45;;;1.10;;
54167;SDS011;68429;50.958;3.592;2023-05-16T10:01:00;8.02;;;1.15;;
54167;SDS011;68429;50.958;3.592;2023-05-16T10:03:27;3.45;;;0.90;;
54167;SDS011;68429;50.958;3.592;2023-05-16T10:05:53;2.47;;;0.90;;
54167;SDS011;68429;50.958;3.592;2023-05-16T10:08:23;5.47;;;1.00;;
54167;SDS011;68429;50.958;3.592;2023-05-16T10:10:50;4.57;;;0.90;;
54167;SDS011;68429;50.958;3.592;2023-05-16T10:13:20;4.03;;;1.08;;
54167;SDS011;68429;50.958;3.592;2023-05-16T10:15:47;5.93;;;1.23;;
54167;SDS011;68429;50.958;3.592;2023-05-16T10:18:13;5.03;;;1.20;;
54167;SDS011;68429;50.958;3.592;2023-05-16T10:20:42;3.53;;;1.05;;
54167;SDS011;68429;50.958;3.592;2023-05-16T10:23:12;4.50;;;1.02;;
54167;SDS011;68429;50.958;3.592;2023-05-16T10:25:43;2.83;;;0.90;;
54167;SDS011;68429;50.958;3.592;2023-05-16T10:28:10;7.63;;;1.50;;
54167;SDS011;68429;50.958;3.592;2023-05-16T10:30:36;1.58;;;0.73;;
54167;SDS011;68429;50.958;3.592;2023-05-16T10:33:05;6.57;;;1.10;;
54167;SDS011;68429;50.958;3.592;2023-05-16T10:35:31;3.83;;;1.15;;
54167;SDS011;68429;50.958;3.592;2023-05-16T10:37:58;4.38;;;0.93;;
54167;SDS011;68429;50.958;3.592;2023-05-16T10:40:25;3.40;;;1.10;;
54167;SDS011;68429;50.958;3.592;2023-05-16T10:42:59;5.15;;;1.00;;
54167;SDS011;68429;50.958;3.592;2023-05-16T10:45:26;4.60;;;0.80;;
54167;SDS011;68429;50.958;3.592;2023-05-16T10:47:53;6.43;;;0.32;;
54167;SDS011;68429;50.958;3.592;2023-05-16T10:50:38;1.98;;;0.70;;
54167;SDS011;68429;50.958;3.592;2023-05-16T10:53:21;4.63;;;0.80;;
54167;SDS011;68429;50.958;3.592;2023-05-16T11:06:24;3.85;;;1.00;;
54167;SDS011;68429;50.958;3.592;2023-05-16T11:08:56;2.33;;;0.85;;
54167;SDS011;68429;50.958;3.592;2023-05-16T11:14:25;4.07;;;0.90;;
54167;SDS011;68429;50.958;3.592;2023-05-16T11:19:48;3.97;;;1.10;;
54167;SDS011;68429;50.958;3.592;2023-05-16T11:22:32;6.00;;;1.05;;
54167;SDS011;68429;50.958;3.592;2023-05-16T11:30:00;2.75;;;0.80;;
54167;SDS011;68429;50.958;3.592;2023-05-16T11:32:40;4.80;;;0.90;;
54167;SDS011;68429;50.958;3.592;2023-05-16T11:35:07;4.90;;;1.05;;
54167;SDS011;68429;50.958;3.592;2023-05-16T11:37:34;2.63;;;0.90;;
54167;SDS011;68429;50.958;3.592;2023-05-16T11:40:04;2.75;;;1.05;;
54167;SDS011;68429;50.958;3.592;2023-05-16T11:42:34;2.38;;;0.80;;
54167;SDS011;68429;50.958;3.592;2023-05-16T11:45:08;4.80;;;0.73;;
54167;SDS011;68429;50.958;3.592;2023-05-16T11:47:36;3.83;;;1.65;;
54167;SDS011;68429;50.958;3.592;2023-05-16T11:50:15;5.90;;;1.13;;
54167;SDS011;68429;50.958;3.592;2023-05-16T11:52:43;5.03;;;1.00;;
54167;SDS011;68429;50.958;3.592;2023-05-16T11:55:11;2.85;;;0.73;;
54167;SDS011;68429;50.958;3.592;2023-05-16T11:57:40;4.18;;;0.85;;
54167;SDS011;68429;50.958;3.592;2023-05-16T12:00:13;4.97;;;1.38;;
54167;SDS011;68429;50.958;3.592;2023-05-16T12:02:41;5.20;;;1.13;;
54167;SDS011;68429;50.958;3.592;2023-05-16T12:05:07;5.65;;;1.13;;
54167;SDS011;68429;50.958;3.592;2023-05-16T12:07:37;4.45;;;1.20;;
54167;SDS011;68429;50.958;3.592;2023-05-16T12:10:06;3.42;;;1.17;;
54167;SDS011;68429;50.958;3.592;2023-05-16T12:12:33;3.47;;;0.85;;
54167;SDS011;68429;50.958;3.592;2023-05-16T12:15:00;3.20;;;0.90;;
54167;SDS011;68429;50.958;3.592;2023-05-16T12:17:30;9.38;;;0.80;;
54167;SDS011;68429;50.958;3.592;2023-05-16T12:19:56;2.67;;;1.35;;
54167;SDS011;68429;50.958;3.592;2023-05-16T12:22:23;4.75;;;1.20;;
54167;SDS011;68429;50.958;3.592;2023-05-16T12:24:49;4.25;;;1.15;;
54167;SDS011;68429;50.958;3.592;2023-05-16T12:27:21;3.50;;;0.75;;
54167;SDS011;68429;50.958;3.592;2023-05-16T12:29:48;7.18;;;1.27;;
54167;SDS011;68429;50.958;3.592;2023-05-16T12:32:18;3.35;;;0.93;;
54167;SDS011;68429;50.958;3.592;2023-05-16T12:34:51;5.75;;;0.90;;
54167;SDS011;68429;50.958;3.592;2023-05-16T12:37:17;7.22;;;0.95;;
54167;SDS011;68429;50.958;3.592;2023-05-16T12:39:44;2.72;;;0.90;;
54167;SDS011;68429;50.958;3.592;2023-05-16T12:42:12;2.67;;;0.82;;
54167;SDS011;68429;50.958;3.592;2023-05-16T12:44:38;1.58;;;0.50;;
54167;SDS011;68429;50.958;3.592;2023-05-16T12:47:10;3.45;;;0.80;;
54167;SDS011;68429;50.958;3.592;2023-05-16T12:49:42;5.00;;;1.15;;
54167;SDS011;68429;50.958;3.592;2023-05-16T12:52:10;4.63;;;1.02;;
54167;SDS011;68429;50.958;3.592;2023-05-16T12:54:43;2.63;;;0.77;;
54167;SDS011;68429;50.958;3.592;2023-05-16T12:57:09;2.53;;;0.70;;
54167;SDS011;68429;50.958;3.592;2023-05-16T12:59:35;1.73;;;0.77;;
54167;SDS011;68429;50.958;3.592;2023-05-16T13:02:01;2.22;;;0.70;;
54167;SDS011;68429;50.958;3.592;2023-05-16T13:04:27;3.47;;;1.00;;
54167;SDS011;68429;50.958;3.592;2023-05-16T13:06:53;6.43;;;1.35;;
54167;SDS011;68429;50.958;3.592;2023-05-16T13:09:19;3.15;;;0.90;;
54167;SDS011;68429;50.958;3.592;2023-05-16T13:11:45;2.72;;;1.15;;
54167;SDS011;68429;50.958;3.592;2023-05-16T13:14:12;2.17;;;1.00;;
54167;SDS011;68429;50.958;3.592;2023-05-16T13:16:37;3.25;;;1.00;;
54167;SDS011;68429;50.958;3.592;2023-05-16T13:19:03;3.05;;;1.00;;
54167;SDS011;68429;50.958;3.592;2023-05-16T13:21:29;4.70;;;0.82;;
54167;SDS011;68429;50.958;3.592;2023-05-16T13:23:56;1.92;;;0.80;;
54167;SDS011;68429;50.958;3.592;2023-05-16T13:26:22;5.03;;;0.80;;
54167;SDS011;68429;50.958;3.592;2023-05-16T13:28:48;3.92;;;0.93;;
54167;SDS011;68429;50.958;3.592;2023-05-16T13:31:17;2.15;;;0.60;;
54167;SDS011;68429;50.958;3.592;2023-05-16T13:33:43;3.90;;;0.98;;
54167;SDS011;68429;50.958;3.592;2023-05-16T13:36:08;2.97;;;0.70;;
54167;SDS011;68429;50.958;3.592;2023-05-16T13:38:34;5.32;;;1.20;;
54167;SDS011;68429;50.958;3.592;2023-05-16T13:41:00;5.68;;;1.42;;
54167;SDS011;68429;50.958;3.592;2023-05-16T13:43:26;3.25;;;0.73;;
54167;SDS011;68429;50.958;3.592;2023-05-16T13:45:52;2.63;;;0.90;;
54167;SDS011;68429;50.958;3.592;2023-05-16T13:48:17;4.10;;;1.00;;
54167;SDS011;68429;50.958;3.592;2023-05-16T13:50:43;3.42;;;0.63;;
54167;SDS011;68429;50.958;3.592;2023-05-16T13:53:09;3.45;;;0.75;;
54167;SDS011;68429;50.958;3.592;2023-05-16T13:55:35;2.90;;;0.80;;
54167;SDS011;68429;50.958;3.592;2023-05-16T13:58:00;2.30;;;0.68;;
54167;SDS011;68429;50.958;3.592;2023-05-16T14:00:26;1.67;;;0.63;;
54167;SDS011;68429;50.958;3.592;2023-05-16T14:02:53;6.07;;;1.27;;
54167;SDS011;68429;50.958;3.592;2023-05-16T14:05:18;2.38;;;0.63;;
54167;SDS011;68429;50.958;3.592;2023-05-16T14:07:44;1.45;;;0.47;;
54167;SDS011;68429;50.958;3.592;2023-05-16T14:10:10;4.07;;;0.90;;
54167;SDS011;68429;50.958;3.592;2023-05-16T14:12:36;2.53;;;0.90;;
54167;SDS011;68429;50.958;3.592;2023-05-16T14:15:02;2.10;;;0.77;;
54167;SDS011;68429;50.958;3.592;2023-05-16T14:17:29;3.50;;;0.80;;
54167;SDS011;68429;50.958;3.592;2023-05-16T14:19:54;2.55;;;0.70;;
54167;SDS011;68429;50.958;3.592;2023-05-16T14:22:20;4.50;;;0.93;;
54167;SDS011;68429;50.958;3.592;2023-05-16T14:24:45;3.38;;;0.80;;
54167;SDS011;68429;50.958;3.592;2023-05-16T14:27:11;2.63;;;0.60;;
54167;SDS011;68429;50.958;3.592;2023-05-16T14:29:39;2.90;;;0.73;;
54167;SDS011;68429;50.958;3.592;2023-05-16T14:32:04;4.75;;;0.73;;
54167;SDS011;68429;50.958;3.592;2023-05-16T14:34:30;2.35;;;0.70;;
54167;SDS011;68429;50.958;3.592;2023-05-16T14:36:57;3.08;;;0.77;;
54167;SDS011;68429;50.958;3.592;2023-05-16T14:39:22;1.45;;;0.75;;
54167;SDS011;68429;50.958;3.592;2023-05-16T14:41:48;4.47;;;0.82;;
54167;SDS011;68429;50.958;3.592;2023-05-16T14:44:13;2.47;;;0.65;;
54167;SDS011;68429;50.958;3.592;2023-05-16T14:46:39;3.33;;;0.90;;
54167;SDS011;68429;50.958;3.592;2023-05-16T14:49:05;2.88;;;0.88;;
54167;SDS011;68429;50.958;3.592;2023-05-16T14:51:30;2.08;;;0.52;;
54167;SDS011;68429;50.958;3.592;2023-05-16T14:53:56;21.65;;;2.67;;
54167;SDS011;68429;50.958;3.592;2023-05-16T14:56:22;1.45;;;0.50;;
54167;SDS011;68429;50.958;3.592;2023-05-16T14:58:50;4.22;;;0.60;;
54167;SDS011;68429;50.958;3.592;2023-05-16T15:01:16;2.80;;;0.65;;
54167;SDS011;68429;50.958;3.592;2023-05-16T15:03:42;3.50;;;0.57;;
54167;SDS011;68429;50.958;3.592;2023-05-16T15:06:07;1.80;;;0.63;;
54167;SDS011;68429;50.958;3.592;2023-05-16T15:08:33;4.07;;;1.10;;
54167;SDS011;68429;50.958;3.592;2023-05-16T15:10:59;1.60;;;0.80;;
54167;SDS011;68429;50.958;3.592;2023-05-16T15:13:25;1.58;;;0.63;;
54167;SDS011;68429;50.958;3.592;2023-05-16T15:15:51;3.92;;;0.70;;
54167;SDS011;68429;50.958;3.592;2023-05-16T15:18:17;1.13;;;0.57;;
54167;SDS011;68429;50.958;3.592;2023-05-16T15:20:42;1.42;;;0.60;;